sensor_id;sensor_type;location;lat;lon;timestamp;temperature;humidity
78731;SHT31;68055;51.978;5.658;2023-03-09T00:02:08;4.9;67.4
78731;SHT31;68055;51.978;5.658;2023-03-09T00:04:40;4.9;67.3
78731;SHT31;68055;51.978;5.658;2023-03-09T00:07:10;4.9;67.3
78731;SHT31;68055;51.978;5.658;2023-03-09T00:09:39;4.9;67.2
78731;SHT31;68055;51.978;5.658;2023-03-09T00:12:09;4.9;67.1
78731;SHT31;68055;51.978;5.658;2023-03-09T00:14:41;4.8;67.1
78731;SHT31;68055;51.978;5.658;2023-03-09T00:17:10;4.8;67.0
78731;SHT31;68055;51.978;5.658;2023-03-09T00:19:40;4.8;67.5
78731;SHT31;68055;51.978;5.658;2023-03-09T00:22:09;4.7;67.7
78731;SHT31;68055;51.978;5.658;2023-03-09T00:24:40;4.7;67.8
78731;SHT31;68055;51.978;5.658;2023-03-09T00:27:15;4.7;68.1
78731;SHT31;68055;51.978;5.658;2023-03-09T00:29:45;4.7;67.9
78731;SHT31;68055;51.978;5.658;2023-03-09T00:32:14;4.7;68.0
78731;SHT31;68055;51.978;5.658;2023-03-09T00:34:44;4.7;67.6
78731;SHT31;68055;51.978;5.658;2023-03-09T00:37:13;4.7;67.9
78731;SHT31;68055;51.978;5.658;2023-03-09T00:39:44;4.7;68.4
78731;SHT31;68055;51.978;5.658;2023-03-09T00:42:13;4.7;67.8
78731;SHT31;68055;51.978;5.658;2023-03-09T00:44:43;4.7;67.7
78731;SHT31;68055;51.978;5.658;2023-03-09T00:47:13;4.7;67.7
78731;SHT31;68055;51.978;5.658;2023-03-09T00:49:43;4.7;67.5
78731;SHT31;68055;51.978;5.658;2023-03-09T00:52:13;4.7;67.7
78731;SHT31;68055;51.978;5.658;2023-03-09T00:54:42;4.7;67.9
78731;SHT31;68055;51.978;5.658;2023-03-09T00:57:12;4.7;67.9
78731;SHT31;68055;51.978;5.658;2023-03-09T00:59:44;4.7;67.6
78731;SHT31;68055;51.978;5.658;2023-03-09T01:02:14;4.7;68.2
78731;SHT31;68055;51.978;5.658;2023-03-09T01:04:44;4.7;67.5
78731;SHT31;68055;51.978;5.658;2023-03-09T01:07:14;4.7;67.6
78731;SHT31;68055;51.978;5.658;2023-03-09T01:09:44;4.7;67.6
78731;SHT31;68055;51.978;5.658;2023-03-09T01:12:14;4.7;67.7
78731;SHT31;68055;51.978;5.658;2023-03-09T01:14:45;4.7;67.6
78731;SHT31;68055;51.978;5.658;2023-03-09T01:17:17;4.8;67.7
78731;SHT31;68055;51.978;5.658;2023-03-09T01:19:47;4.8;67.6
78731;SHT31;68055;51.978;5.658;2023-03-09T01:22:17;4.8;67.4
78731;SHT31;68055;51.978;5.658;2023-03-09T01:24:46;4.8;67.4
78731;SHT31;68055;51.978;5.658;2023-03-09T01:27:16;4.8;67.3
78731;SHT31;68055;51.978;5.658;2023-03-09T01:29:46;4.8;67.2
78731;SHT31;68055;51.978;5.658;2023-03-09T01:32:15;4.8;67.2
78731;SHT31;68055;51.978;5.658;2023-03-09T01:34:45;4.8;67.1
78731;SHT31;68055;51.978;5.658;2023-03-09T01:37:16;4.9;66.9
78731;SHT31;68055;51.978;5.658;2023-03-09T01:39:46;4.9;66.9
78731;SHT31;68055;51.978;5.658;2023-03-09T01:42:17;4.9;66.8
78731;SHT31;68055;51.978;5.658;2023-03-09T01:45:06;4.9;66.9
78731;SHT31;68055;51.978;5.658;2023-03-09T01:47:40;4.9;66.9
78731;SHT31;68055;51.978;5.658;2023-03-09T01:50:11;4.9;66.8
78731;SHT31;68055;51.978;5.658;2023-03-09T01:52:42;4.9;67.0
78731;SHT31;68055;51.978;5.658;2023-03-09T01:55:17;4.9;67.0
78731;SHT31;68055;51.978;5.658;2023-03-09T01:57:53;4.9;67.2
78731;SHT31;68055;51.978;5.658;2023-03-09T02:00:25;4.9;67.0
78731;SHT31;68055;51.978;5.658;2023-03-09T02:02:58;4.9;67.0
78731;SHT31;68055;51.978;5.658;2023-03-09T02:05:35;4.9;67.2
78731;SHT31;68055;51.978;5.658;2023-03-09T02:08:08;4.9;66.9
78731;SHT31;68055;51.978;5.658;2023-03-09T02:10:42;4.9;66.8
78731;SHT31;68055;51.978;5.658;2023-03-09T02:13:17;4.9;67.2
78731;SHT31;68055;51.978;5.658;2023-03-09T02:15:48;4.9;67.1
78731;SHT31;68055;51.978;5.658;2023-03-09T02:18:18;4.9;67.4
78731;SHT31;68055;51.978;5.658;2023-03-09T02:20:57;4.9;67.1
78731;SHT31;68055;51.978;5.658;2023-03-09T02:23:38;5.0;67.0
78731;SHT31;68055;51.978;5.658;2023-03-09T02:26:18;5.0;66.7
78731;SHT31;68055;51.978;5.658;2023-03-09T02:28:51;5.0;66.6
78731;SHT31;68055;51.978;5.658;2023-03-09T02:31:20;5.0;66.7
78731;SHT31;68055;51.978;5.658;2023-03-09T02:33:52;5.0;67.0
78731;SHT31;68055;51.978;5.658;2023-03-09T02:36:23;5.0;67.0
78731;SHT31;68055;51.978;5.658;2023-03-09T02:38:54;5.0;67.0
78731;SHT31;68055;51.978;5.658;2023-03-09T02:41:25;5.0;66.7
78731;SHT31;68055;51.978;5.658;2023-03-09T02:43:57;5.0;66.9
78731;SHT31;68055;51.978;5.658;2023-03-09T02:46:27;5.0;66.9
78731;SHT31;68055;51.978;5.658;2023-03-09T02:48:57;5.0;66.8
78731;SHT31;68055;51.978;5.658;2023-03-09T02:51:26;5.0;66.4
78731;SHT31;68055;51.978;5.658;2023-03-09T02:53:56;5.1;66.5
78731;SHT31;68055;51.978;5.658;2023-03-09T02:56:26;5.1;66.4
78731;SHT31;68055;51.978;5.658;2023-03-09T02:58:55;5.1;66.6
78731;SHT31;68055;51.978;5.658;2023-03-09T03:01:25;5.1;66.5
78731;SHT31;68055;51.978;5.658;2023-03-09T03:03:54;5.1;66.4
78731;SHT31;68055;51.978;5.658;2023-03-09T03:06:24;5.1;66.2
78731;SHT31;68055;51.978;5.658;2023-03-09T03:08:54;5.1;66.2
78731;SHT31;68055;51.978;5.658;2023-03-09T03:11:23;5.1;66.2
78731;SHT31;68055;51.978;5.658;2023-03-09T03:13:53;5.1;66.3
78731;SHT31;68055;51.978;5.658;2023-03-09T03:16:23;5.1;66.4
78731;SHT31;68055;51.978;5.658;2023-03-09T03:18:55;5.1;66.4
78731;SHT31;68055;51.978;5.658;2023-03-09T03:21:24;5.1;65.9
78731;SHT31;68055;51.978;5.658;2023-03-09T03:23:54;5.1;66.2
78731;SHT31;68055;51.978;5.658;2023-03-09T03:26:23;5.1;65.9
78731;SHT31;68055;51.978;5.658;2023-03-09T03:28:53;5.1;65.9
78731;SHT31;68055;51.978;5.658;2023-03-09T03:31:22;5.1;66.0
78731;SHT31;68055;51.978;5.658;2023-03-09T03:33:52;5.1;66.2
78731;SHT31;68055;51.978;5.658;2023-03-09T03:36:22;5.1;65.8
78731;SHT31;68055;51.978;5.658;2023-03-09T03:38:52;5.1;65.9
78731;SHT31;68055;51.978;5.658;2023-03-09T03:41:21;5.1;66.2
78731;SHT31;68055;51.978;5.658;2023-03-09T03:43:51;5.1;66.3
78731;SHT31;68055;51.978;5.658;2023-03-09T03:46:20;5.1;66.2
78731;SHT31;68055;51.978;5.658;2023-03-09T03:48:50;5.1;66.3
78731;SHT31;68055;51.978;5.658;2023-03-09T03:51:20;5.1;66.1
78731;SHT31;68055;51.978;5.658;2023-03-09T03:53:49;5.1;66.1
78731;SHT31;68055;51.978;5.658;2023-03-09T03:56:19;5.2;66.3
78731;SHT31;68055;51.978;5.658;2023-03-09T03:58:49;5.2;65.9
78731;SHT31;68055;51.978;5.658;2023-03-09T04:01:18;5.2;65.9
78731;SHT31;68055;51.978;5.658;2023-03-09T04:03:49;5.2;65.6
78731;SHT31;68055;51.978;5.658;2023-03-09T04:06:19;5.2;65.7
78731;SHT31;68055;51.978;5.658;2023-03-09T04:08:48;5.2;65.4
78731;SHT31;68055;51.978;5.658;2023-03-09T04:11:18;5.1;65.8
78731;SHT31;68055;51.978;5.658;2023-03-09T04:13:49;5.1;65.9
78731;SHT31;68055;51.978;5.658;2023-03-09T04:16:19;5.1;66.2
78731;SHT31;68055;51.978;5.658;2023-03-09T04:18:49;5.1;66.1
78731;SHT31;68055;51.978;5.658;2023-03-09T04:21:19;5.1;65.8
78731;SHT31;68055;51.978;5.658;2023-03-09T04:23:49;5.1;65.8
78731;SHT31;68055;51.978;5.658;2023-03-09T04:26:18;5.1;66.0
78731;SHT31;68055;51.978;5.658;2023-03-09T04:28:50;5.1;65.9
78731;SHT31;68055;51.978;5.658;2023-03-09T04:31:19;5.1;66.4
78731;SHT31;68055;51.978;5.658;2023-03-09T04:33:49;5.1;66.2
78731;SHT31;68055;51.978;5.658;2023-03-09T04:36:20;5.1;66.5
78731;SHT31;68055;51.978;5.658;2023-03-09T04:38:50;5.1;66.5
78731;SHT31;68055;51.978;5.658;2023-03-09T04:41:20;5.2;66.2
78731;SHT31;68055;51.978;5.658;2023-03-09T04:43:49;5.2;65.7
78731;SHT31;68055;51.978;5.658;2023-03-09T04:46:19;5.2;66.0
78731;SHT31;68055;51.978;5.658;2023-03-09T04:48:48;5.2;66.0
78731;SHT31;68055;51.978;5.658;2023-03-09T04:51:18;5.2;65.9
78731;SHT31;68055;51.978;5.658;2023-03-09T04:53:48;5.2;65.7
78731;SHT31;68055;51.978;5.658;2023-03-09T04:56:17;5.2;65.7
78731;SHT31;68055;51.978;5.658;2023-03-09T04:58:47;5.2;66.1
78731;SHT31;68055;51.978;5.658;2023-03-09T05:01:19;5.2;65.6
78731;SHT31;68055;51.978;5.658;2023-03-09T05:03:49;5.2;65.9
78731;SHT31;68055;51.978;5.658;2023-03-09T05:06:18;5.2;66.1
78731;SHT31;68055;51.978;5.658;2023-03-09T05:08:48;5.2;66.1
78731;SHT31;68055;51.978;5.658;2023-03-09T05:11:17;5.2;66.2
78731;SHT31;68055;51.978;5.658;2023-03-09T05:13:47;5.3;66.2
78731;SHT31;68055;51.978;5.658;2023-03-09T05:16:16;5.3;65.6
78731;SHT31;68055;51.978;5.658;2023-03-09T05:18:50;5.3;65.5
78731;SHT31;68055;51.978;5.658;2023-03-09T05:21:20;5.3;65.5
78731;SHT31;68055;51.978;5.658;2023-03-09T05:23:50;5.3;65.3
78731;SHT31;68055;51.978;5.658;2023-03-09T05:26:19;5.3;65.3
78731;SHT31;68055;51.978;5.658;2023-03-09T05:28:49;5.3;65.4
78731;SHT31;68055;51.978;5.658;2023-03-09T05:31:19;5.3;65.5
78731;SHT31;68055;51.978;5.658;2023-03-09T05:33:52;5.3;65.1
78731;SHT31;68055;51.978;5.658;2023-03-09T05:36:23;5.3;65.4
78731;SHT31;68055;51.978;5.658;2023-03-09T05:38:53;5.3;65.5
78731;SHT31;68055;51.978;5.658;2023-03-09T05:41:25;5.3;65.8
78731;SHT31;68055;51.978;5.658;2023-03-09T05:43:54;5.3;65.4
78731;SHT31;68055;51.978;5.658;2023-03-09T05:46:24;5.3;65.6
78731;SHT31;68055;51.978;5.658;2023-03-09T05:48:55;5.3;65.7
78731;SHT31;68055;51.978;5.658;2023-03-09T05:51:25;5.3;65.6
78731;SHT31;68055;51.978;5.658;2023-03-09T05:53:55;5.3;65.3
78731;SHT31;68055;51.978;5.658;2023-03-09T05:56:24;5.3;65.4
78731;SHT31;68055;51.978;5.658;2023-03-09T05:58:54;5.3;65.7
78731;SHT31;68055;51.978;5.658;2023-03-09T06:01:26;5.3;65.4
78731;SHT31;68055;51.978;5.658;2023-03-09T06:03:56;5.4;65.6
78731;SHT31;68055;51.978;5.658;2023-03-09T06:06:26;5.4;65.5
78731;SHT31;68055;51.978;5.658;2023-03-09T06:08:56;5.4;65.4
78731;SHT31;68055;51.978;5.658;2023-03-09T06:11:26;5.4;65.2
78731;SHT31;68055;51.978;5.658;2023-03-09T06:13:55;5.4;65.2
78731;SHT31;68055;51.978;5.658;2023-03-09T06:16:25;5.4;64.9
78731;SHT31;68055;51.978;5.658;2023-03-09T06:18:56;5.4;65.2
78731;SHT31;68055;51.978;5.658;2023-03-09T06:21:26;5.4;65.0
78731;SHT31;68055;51.978;5.658;2023-03-09T06:23:56;5.4;65.0
78731;SHT31;68055;51.978;5.658;2023-03-09T06:26:26;5.4;65.1
78731;SHT31;68055;51.978;5.658;2023-03-09T06:28:56;5.4;65.4
78731;SHT31;68055;51.978;5.658;2023-03-09T06:31:28;5.3;65.8
78731;SHT31;68055;51.978;5.658;2023-03-09T06:34:01;5.4;66.0
78731;SHT31;68055;51.978;5.658;2023-03-09T06:36:31;5.4;65.9
78731;SHT31;68055;51.978;5.658;2023-03-09T06:39:02;5.4;65.5
78731;SHT31;68055;51.978;5.658;2023-03-09T06:41:32;5.4;65.8
78731;SHT31;68055;51.978;5.658;2023-03-09T06:44:02;5.4;65.7
78731;SHT31;68055;51.978;5.658;2023-03-09T06:46:35;5.4;65.8
78731;SHT31;68055;51.978;5.658;2023-03-09T06:49:05;5.5;65.3
78731;SHT31;68055;51.978;5.658;2023-03-09T06:51:36;5.5;65.8
78731;SHT31;68055;51.978;5.658;2023-03-09T06:54:06;5.5;65.7
78731;SHT31;68055;51.978;5.658;2023-03-09T06:56:35;5.5;65.1
78731;SHT31;68055;51.978;5.658;2023-03-09T06:59:07;5.5;65.0
78731;SHT31;68055;51.978;5.658;2023-03-09T07:01:36;5.5;65.0
78731;SHT31;68055;51.978;5.658;2023-03-09T07:04:06;5.5;64.6
78731;SHT31;68055;51.978;5.658;2023-03-09T07:06:36;5.5;64.8
78731;SHT31;68055;51.978;5.658;2023-03-09T07:09:05;5.5;64.8
78731;SHT31;68055;51.978;5.658;2023-03-09T07:11:35;5.5;65.1
78731;SHT31;68055;51.978;5.658;2023-03-09T07:14:05;5.6;65.5
78731;SHT31;68055;51.978;5.658;2023-03-09T07:16:34;5.6;65.2
78731;SHT31;68055;51.978;5.658;2023-03-09T07:19:04;5.6;65.2
78731;SHT31;68055;51.978;5.658;2023-03-09T07:21:33;5.6;65.9
78731;SHT31;68055;51.978;5.658;2023-03-09T07:24:03;5.6;65.3
78731;SHT31;68055;51.978;5.658;2023-03-09T07:26:33;5.7;65.0
78731;SHT31;68055;51.978;5.658;2023-03-09T07:29:02;5.7;65.2
78731;SHT31;68055;51.978;5.658;2023-03-09T07:31:32;5.7;64.9
78731;SHT31;68055;51.978;5.658;2023-03-09T07:34:02;5.7;65.0
78731;SHT31;68055;51.978;5.658;2023-03-09T07:36:31;5.8;65.0
78731;SHT31;68055;51.978;5.658;2023-03-09T07:39:01;5.8;65.1
78731;SHT31;68055;51.978;5.658;2023-03-09T07:41:30;5.8;64.6
78731;SHT31;68055;51.978;5.658;2023-03-09T07:44:00;5.8;64.7
78731;SHT31;68055;51.978;5.658;2023-03-09T07:46:30;5.9;64.7
78731;SHT31;68055;51.978;5.658;2023-03-09T07:48:59;5.9;64.4
78731;SHT31;68055;51.978;5.658;2023-03-09T07:51:29;5.9;64.6
78731;SHT31;68055;51.978;5.658;2023-03-09T07:53:59;5.9;64.4
78731;SHT31;68055;51.978;5.658;2023-03-09T07:56:29;5.9;65.2
78731;SHT31;68055;51.978;5.658;2023-03-09T07:59:00;5.9;64.6
78731;SHT31;68055;51.978;5.658;2023-03-09T08:01:31;5.9;65.0
78731;SHT31;68055;51.978;5.658;2023-03-09T08:04:01;5.9;64.8
78731;SHT31;68055;51.978;5.658;2023-03-09T08:06:30;6.0;65.1
78731;SHT31;68055;51.978;5.658;2023-03-09T08:09:01;6.0;65.1
78731;SHT31;68055;51.978;5.658;2023-03-09T08:11:30;6.0;65.3
78731;SHT31;68055;51.978;5.658;2023-03-09T08:14:01;6.1;65.2
78731;SHT31;68055;51.978;5.658;2023-03-09T08:16:32;6.1;65.4
78731;SHT31;68055;51.978;5.658;2023-03-09T08:19:02;6.2;64.8
78731;SHT31;68055;51.978;5.658;2023-03-09T08:21:32;6.2;63.3
78731;SHT31;68055;51.978;5.658;2023-03-09T08:24:01;6.2;64.3
78731;SHT31;68055;51.978;5.658;2023-03-09T08:26:31;6.3;64.5
78731;SHT31;68055;51.978;5.658;2023-03-09T08:29:00;6.3;64.8
78731;SHT31;68055;51.978;5.658;2023-03-09T08:31:30;6.3;64.3
78731;SHT31;68055;51.978;5.658;2023-03-09T08:34:00;6.3;63.6
78731;SHT31;68055;51.978;5.658;2023-03-09T08:36:30;6.4;63.7
78731;SHT31;68055;51.978;5.658;2023-03-09T08:39:00;6.4;64.2
78731;SHT31;68055;51.978;5.658;2023-03-09T08:41:30;6.4;63.8
78731;SHT31;68055;51.978;5.658;2023-03-09T08:43:59;6.4;63.6
78731;SHT31;68055;51.978;5.658;2023-03-09T08:46:29;6.4;63.5
78731;SHT31;68055;51.978;5.658;2023-03-09T08:48:59;6.5;63.5
78731;SHT31;68055;51.978;5.658;2023-03-09T08:51:28;6.5;63.7
78731;SHT31;68055;51.978;5.658;2023-03-09T08:53:58;6.5;63.4
78731;SHT31;68055;51.978;5.658;2023-03-09T08:56:27;6.5;64.2
78731;SHT31;68055;51.978;5.658;2023-03-09T08:58:57;6.5;63.6
78731;SHT31;68055;51.978;5.658;2023-03-09T09:01:26;6.6;63.1
78731;SHT31;68055;51.978;5.658;2023-03-09T09:03:56;6.6;62.5
78731;SHT31;68055;51.978;5.658;2023-03-09T09:06:25;6.6;63.4
78731;SHT31;68055;51.978;5.658;2023-03-09T09:08:56;6.6;63.7
78731;SHT31;68055;51.978;5.658;2023-03-09T09:11:25;6.7;63.3
78731;SHT31;68055;51.978;5.658;2023-03-09T09:13:55;6.7;62.9
78731;SHT31;68055;51.978;5.658;2023-03-09T09:16:25;6.7;63.3
78731;SHT31;68055;51.978;5.658;2023-03-09T09:18:57;6.8;63.3
78731;SHT31;68055;51.978;5.658;2023-03-09T09:21:28;6.8;62.5
78731;SHT31;68055;51.978;5.658;2023-03-09T09:23:58;6.8;62.7
78731;SHT31;68055;51.978;5.658;2023-03-09T09:26:28;6.8;63.5
78731;SHT31;68055;51.978;5.658;2023-03-09T09:28:57;6.9;63.9
78731;SHT31;68055;51.978;5.658;2023-03-09T09:31:29;6.9;63.0
78731;SHT31;68055;51.978;5.658;2023-03-09T09:33:58;6.9;63.0
78731;SHT31;68055;51.978;5.658;2023-03-09T09:36:29;7.0;63.0
78731;SHT31;68055;51.978;5.658;2023-03-09T09:39:01;7.0;62.9
78731;SHT31;68055;51.978;5.658;2023-03-09T09:41:40;7.0;62.7
78731;SHT31;68055;51.978;5.658;2023-03-09T09:44:15;7.0;62.7
78731;SHT31;68055;51.978;5.658;2023-03-09T09:46:48;7.1;62.3
78731;SHT31;68055;51.978;5.658;2023-03-09T09:49:24;7.1;61.7
78731;SHT31;68055;51.978;5.658;2023-03-09T09:52:03;7.1;61.6
78731;SHT31;68055;51.978;5.658;2023-03-09T09:54:46;7.1;61.3
78731;SHT31;68055;51.978;5.658;2023-03-09T09:57:23;7.2;61.7
78731;SHT31;68055;51.978;5.658;2023-03-09T10:00:06;7.2;61.3
78731;SHT31;68055;51.978;5.658;2023-03-09T10:02:44;7.2;62.3
78731;SHT31;68055;51.978;5.658;2023-03-09T10:05:26;7.2;62.1
78731;SHT31;68055;51.978;5.658;2023-03-09T10:08:08;7.2;61.4
78731;SHT31;68055;51.978;5.658;2023-03-09T10:10:43;7.3;62.0
78731;SHT31;68055;51.978;5.658;2023-03-09T10:13:18;7.3;61.9
78731;SHT31;68055;51.978;5.658;2023-03-09T10:15:50;7.3;62.8
78731;SHT31;68055;51.978;5.658;2023-03-09T10:18:31;7.4;62.2
78731;SHT31;68055;51.978;5.658;2023-03-09T10:21:03;7.4;61.6
78731;SHT31;68055;51.978;5.658;2023-03-09T10:23:34;7.5;62.2
78731;SHT31;68055;51.978;5.658;2023-03-09T10:26:17;7.5;61.4
78731;SHT31;68055;51.978;5.658;2023-03-09T10:28:52;7.6;61.5
78731;SHT31;68055;51.978;5.658;2023-03-09T10:31:33;7.6;61.9
78731;SHT31;68055;51.978;5.658;2023-03-09T10:34:15;7.7;61.5
78731;SHT31;68055;51.978;5.658;2023-03-09T10:37:00;7.7;61.0
78731;SHT31;68055;51.978;5.658;2023-03-09T10:39:41;7.8;61.5
78731;SHT31;68055;51.978;5.658;2023-03-09T10:42:19;7.8;61.6
78731;SHT31;68055;51.978;5.658;2023-03-09T10:45:04;7.9;61.0
78731;SHT31;68055;51.978;5.658;2023-03-09T10:47:53;7.9;61.4
78731;SHT31;68055;51.978;5.658;2023-03-09T10:50:25;7.9;61.0
78731;SHT31;68055;51.978;5.658;2023-03-09T10:52:56;8.0;61.0
78731;SHT31;68055;51.978;5.658;2023-03-09T10:55:38;8.0;60.3
78731;SHT31;68055;51.978;5.658;2023-03-09T10:58:15;8.0;60.6
78731;SHT31;68055;51.978;5.658;2023-03-09T11:00:59;8.0;60.2
78731;SHT31;68055;51.978;5.658;2023-03-09T11:03:37;8.1;60.5
78731;SHT31;68055;51.978;5.658;2023-03-09T11:06:23;8.1;60.1
78731;SHT31;68055;51.978;5.658;2023-03-09T11:09:14;8.1;59.9
78731;SHT31;68055;51.978;5.658;2023-03-09T11:11:48;8.0;59.9
78731;SHT31;68055;51.978;5.658;2023-03-09T11:14:26;8.0;60.1
78731;SHT31;68055;51.978;5.658;2023-03-09T11:16:58;8.0;60.2
78731;SHT31;68055;51.978;5.658;2023-03-09T11:19:29;7.9;61.1
78731;SHT31;68055;51.978;5.658;2023-03-09T11:22:10;7.9;60.9
78731;SHT31;68055;51.978;5.658;2023-03-09T11:24:43;7.9;60.9
78731;SHT31;68055;51.978;5.658;2023-03-09T11:27:21;7.9;61.1
78731;SHT31;68055;51.978;5.658;2023-03-09T11:29:57;7.9;61.4
78731;SHT31;68055;51.978;5.658;2023-03-09T11:32:28;7.8;61.7
78731;SHT31;68055;51.978;5.658;2023-03-09T11:34:59;7.8;61.6
78731;SHT31;68055;51.978;5.658;2023-03-09T11:37:34;7.8;61.9
78731;SHT31;68055;51.978;5.658;2023-03-09T11:40:15;7.8;61.8
78731;SHT31;68055;51.978;5.658;2023-03-09T11:42:50;7.8;61.9
78731;SHT31;68055;51.978;5.658;2023-03-09T11:45:23;7.8;62.1
78731;SHT31;68055;51.978;5.658;2023-03-09T11:47:59;7.8;62.3
78731;SHT31;68055;51.978;5.658;2023-03-09T11:50:34;7.8;62.3
78731;SHT31;68055;51.978;5.658;2023-03-09T11:53:13;7.7;62.8
78731;SHT31;68055;51.978;5.658;2023-03-09T11:55:49;7.7;62.6
78731;SHT31;68055;51.978;5.658;2023-03-09T11:58:27;7.7;61.9
78731;SHT31;68055;51.978;5.658;2023-03-09T12:01:07;7.7;62.2
78731;SHT31;68055;51.978;5.658;2023-03-09T12:03:45;7.6;62.8
78731;SHT31;68055;51.978;5.658;2023-03-09T12:06:32;7.6;63.1
78731;SHT31;68055;51.978;5.658;2023-03-09T12:09:06;7.6;63.6
78731;SHT31;68055;51.978;5.658;2023-03-09T12:11:42;7.5;62.7
78731;SHT31;68055;51.978;5.658;2023-03-09T12:14:19;7.5;63.8
78731;SHT31;68055;51.978;5.658;2023-03-09T12:16:54;7.4;63.4
78731;SHT31;68055;51.978;5.658;2023-03-09T12:19:28;7.4;64.4
78731;SHT31;68055;51.978;5.658;2023-03-09T12:22:05;7.4;64.0
78731;SHT31;68055;51.978;5.658;2023-03-09T12:24:42;7.4;63.1
78731;SHT31;68055;51.978;5.658;2023-03-09T12:27:16;7.3;64.0
78731;SHT31;68055;51.978;5.658;2023-03-09T12:29:49;7.3;64.1
78731;SHT31;68055;51.978;5.658;2023-03-09T12:32:37;7.2;64.7
78731;SHT31;68055;51.978;5.658;2023-03-09T12:35:13;7.2;64.5
78731;SHT31;68055;51.978;5.658;2023-03-09T12:38:13;7.2;64.5
78731;SHT31;68055;51.978;5.658;2023-03-09T12:40:45;7.1;65.0
78731;SHT31;68055;51.978;5.658;2023-03-09T12:43:42;7.1;64.3
78731;SHT31;68055;51.978;5.658;2023-03-09T12:50:00;7.0;64.0
78731;SHT31;68055;51.978;5.658;2023-03-09T12:52:36;6.9;64.7
78731;SHT31;68055;51.978;5.658;2023-03-09T12:55:15;6.9;66.0
78731;SHT31;68055;51.978;5.658;2023-03-09T12:57:48;6.8;64.9
78731;SHT31;68055;51.978;5.658;2023-03-09T13:00:29;6.8;65.0
78731;SHT31;68055;51.978;5.658;2023-03-09T13:03:13;6.8;65.6
78731;SHT31;68055;51.978;5.658;2023-03-09T13:05:42;6.8;66.2
78731;SHT31;68055;51.978;5.658;2023-03-09T13:08:51;6.8;66.1
78731;SHT31;68055;51.978;5.658;2023-03-09T13:11:34;6.8;66.5
78731;SHT31;68055;51.978;5.658;2023-03-09T13:14:11;6.8;66.2
78731;SHT31;68055;51.978;5.658;2023-03-09T13:16:54;6.8;65.8
78731;SHT31;68055;51.978;5.658;2023-03-09T13:19:41;6.8;65.8
78731;SHT31;68055;51.978;5.658;2023-03-09T13:22:18;6.7;66.0
78731;SHT31;68055;51.978;5.658;2023-03-09T13:24:54;6.7;66.9
78731;SHT31;68055;51.978;5.658;2023-03-09T13:27:28;6.7;67.2
78731;SHT31;68055;51.978;5.658;2023-03-09T13:30:12;6.7;67.6
78731;SHT31;68055;51.978;5.658;2023-03-09T13:32:40;6.7;67.0
78731;SHT31;68055;51.978;5.658;2023-03-09T13:35:16;6.7;67.1
78731;SHT31;68055;51.978;5.658;2023-03-09T13:37:50;6.8;66.8
78731;SHT31;68055;51.978;5.658;2023-03-09T13:40:29;6.8;66.4
78731;SHT31;68055;51.978;5.658;2023-03-09T13:43:04;6.8;66.5
78731;SHT31;68055;51.978;5.658;2023-03-09T13:45:37;6.8;66.8
78731;SHT31;68055;51.978;5.658;2023-03-09T13:48:12;6.8;67.6
78731;SHT31;68055;51.978;5.658;2023-03-09T13:50:44;6.8;67.4
78731;SHT31;68055;51.978;5.658;2023-03-09T13:53:24;6.8;66.5
78731;SHT31;68055;51.978;5.658;2023-03-09T13:56:00;6.8;66.8
78731;SHT31;68055;51.978;5.658;2023-03-09T13:58:39;6.8;67.4
78731;SHT31;68055;51.978;5.658;2023-03-09T14:01:22;6.8;67.5
78731;SHT31;68055;51.978;5.658;2023-03-09T14:03:55;6.9;68.0
78731;SHT31;68055;51.978;5.658;2023-03-09T14:06:29;6.9;67.5
78731;SHT31;68055;51.978;5.658;2023-03-09T14:09:05;6.9;67.1
78731;SHT31;68055;51.978;5.658;2023-03-09T14:11:39;6.9;68.0
78731;SHT31;68055;51.978;5.658;2023-03-09T14:14:18;6.9;67.6
78731;SHT31;68055;51.978;5.658;2023-03-09T14:16:51;6.9;67.9
78731;SHT31;68055;51.978;5.658;2023-03-09T14:19:26;6.9;67.9
78731;SHT31;68055;51.978;5.658;2023-03-09T14:21:58;6.9;67.7
78731;SHT31;68055;51.978;5.658;2023-03-09T14:24:32;6.9;68.0
78731;SHT31;68055;51.978;5.658;2023-03-09T14:27:17;6.8;67.6
78731;SHT31;68055;51.978;5.658;2023-03-09T14:29:48;6.8;67.6
78731;SHT31;68055;51.978;5.658;2023-03-09T14:32:23;6.8;67.6
78731;SHT31;68055;51.978;5.658;2023-03-09T14:34:55;6.8;67.5
78731;SHT31;68055;51.978;5.658;2023-03-09T14:37:27;6.8;68.1
78731;SHT31;68055;51.978;5.658;2023-03-09T14:39:59;6.8;67.9
78731;SHT31;68055;51.978;5.658;2023-03-09T14:42:32;6.7;68.5
78731;SHT31;68055;51.978;5.658;2023-03-09T14:45:24;6.7;68.4
78731;SHT31;68055;51.978;5.658;2023-03-09T14:47:54;6.7;69.1
78731;SHT31;68055;51.978;5.658;2023-03-09T14:50:26;6.7;68.8
78731;SHT31;68055;51.978;5.658;2023-03-09T14:52:55;6.7;68.9
78731;SHT31;68055;51.978;5.658;2023-03-09T14:55:27;6.7;69.4
78731;SHT31;68055;51.978;5.658;2023-03-09T14:57:56;6.7;69.6
78731;SHT31;68055;51.978;5.658;2023-03-09T15:00:26;6.7;69.7
78731;SHT31;68055;51.978;5.658;2023-03-09T15:02:58;6.7;70.0
78731;SHT31;68055;51.978;5.658;2023-03-09T15:05:27;6.8;70.0
78731;SHT31;68055;51.978;5.658;2023-03-09T15:07:57;6.8;69.3
78731;SHT31;68055;51.978;5.658;2023-03-09T15:10:28;6.8;68.8
78731;SHT31;68055;51.978;5.658;2023-03-09T15:12:58;6.8;69.4
78731;SHT31;68055;51.978;5.658;2023-03-09T15:15:28;6.8;69.4
78731;SHT31;68055;51.978;5.658;2023-03-09T15:17:57;6.7;68.8
78731;SHT31;68055;51.978;5.658;2023-03-09T15:20:27;6.7;68.7
78731;SHT31;68055;51.978;5.658;2023-03-09T15:22:56;6.7;69.1
78731;SHT31;68055;51.978;5.658;2023-03-09T15:25:28;6.7;69.4
78731;SHT31;68055;51.978;5.658;2023-03-09T15:27:57;6.7;69.5
78731;SHT31;68055;51.978;5.658;2023-03-09T15:30:27;6.7;69.5
78731;SHT31;68055;51.978;5.658;2023-03-09T15:32:59;6.7;69.7
78731;SHT31;68055;51.978;5.658;2023-03-09T15:35:30;6.7;69.7
78731;SHT31;68055;51.978;5.658;2023-03-09T15:38:00;6.7;69.6
78731;SHT31;68055;51.978;5.658;2023-03-09T15:40:30;6.7;69.4
78731;SHT31;68055;51.978;5.658;2023-03-09T15:42:59;6.6;69.6
78731;SHT31;68055;51.978;5.658;2023-03-09T15:45:29;6.6;69.4
78731;SHT31;68055;51.978;5.658;2023-03-09T15:47:58;6.6;69.3
78731;SHT31;68055;51.978;5.658;2023-03-09T15:50:28;6.6;69.7
78731;SHT31;68055;51.978;5.658;2023-03-09T15:52:58;6.6;69.1
78731;SHT31;68055;51.978;5.658;2023-03-09T15:55:27;6.6;70.1
78731;SHT31;68055;51.978;5.658;2023-03-09T15:57:59;6.5;70.2
78731;SHT31;68055;51.978;5.658;2023-03-09T16:00:29;6.5;69.9
78731;SHT31;68055;51.978;5.658;2023-03-09T16:03:01;6.5;69.8
78731;SHT31;68055;51.978;5.658;2023-03-09T16:05:30;6.5;70.2
78731;SHT31;68055;51.978;5.658;2023-03-09T16:08:00;6.5;70.3
78731;SHT31;68055;51.978;5.658;2023-03-09T16:10:31;6.5;70.2
78731;SHT31;68055;51.978;5.658;2023-03-09T16:13:01;6.5;70.3
78731;SHT31;68055;51.978;5.658;2023-03-09T16:15:30;6.5;70.0
78731;SHT31;68055;51.978;5.658;2023-03-09T16:18:00;6.5;70.2
78731;SHT31;68055;51.978;5.658;2023-03-09T16:20:29;6.4;69.8
78731;SHT31;68055;51.978;5.658;2023-03-09T16:22:59;6.4;70.1
78731;SHT31;68055;51.978;5.658;2023-03-09T16:25:29;6.4;70.1
78731;SHT31;68055;51.978;5.658;2023-03-09T16:27:58;6.4;70.2
78731;SHT31;68055;51.978;5.658;2023-03-09T16:30:28;6.4;70.3
78731;SHT31;68055;51.978;5.658;2023-03-09T16:32:58;6.4;70.4
78731;SHT31;68055;51.978;5.658;2023-03-09T16:35:28;6.4;70.1
78731;SHT31;68055;51.978;5.658;2023-03-09T16:37:58;6.4;69.9
78731;SHT31;68055;51.978;5.658;2023-03-09T16:40:27;6.4;70.3
78731;SHT31;68055;51.978;5.658;2023-03-09T16:42:57;6.4;70.3
78731;SHT31;68055;51.978;5.658;2023-03-09T16:45:27;6.4;70.4
78731;SHT31;68055;51.978;5.658;2023-03-09T16:47:56;6.3;70.5
78731;SHT31;68055;51.978;5.658;2023-03-09T16:50:27;6.3;70.5
78731;SHT31;68055;51.978;5.658;2023-03-09T16:52:58;6.3;70.7
78731;SHT31;68055;51.978;5.658;2023-03-09T16:55:28;6.3;71.3